Refuge, Texas
Current Conditions -  °F | °C
As of 8:55 AM on Friday 19 Dec 2014 (Local Time) from KDKR Reporting Station
Light Rain Light Rain  
Wind Chill: 52°   Ceiling: NA
Heat Index: 52°   Visibility: NA
Dew Point: 52°   Wind: 12mph
Humidity: 100%   Direction: 10°N
Pressure: 30.19"   Gusts: 17mph
Location:  31.4982°N, 95.4177°W
Report Text: KDKR 191455Z AUTO 01010G15KT -RA 11/11 A3019 RMK AO2 P0002
Loading
Personal Weather Stations






























Interactive Weather Map New forecast layout! Learn more

10-Day Weather Forecast

Advertisements
Track Severe Weather on mobile